Time;durP1;ratioP1;P1;durP2;ratioP2;P2;SDS_P1;SDS_P2;PMS_P1;PMS_P2;Temp;Humidity;BMP_temperature;BMP_pressure;BME280_temperature;BME280_humidity;BME280_pressure;Samples;Min_cycle;Max_cycle;Signal;HPM_P1;HPM_P2
2024/02/03 00:03:59;;;;;;;2.95;2.60;;;;;;;8.40;100.00;98985.69;15287474;19;20014;-56
2024/02/03 00:09:27;;;;;;;2.97;2.58;;;;;;;8.42;100.00;98989.06;15293214;19;20625;-53
2024/02/03 00:14:52;;;;;;;3.63;2.50;;;;;;;8.40;100.00;98994.56;15287264;19;20422;-55
2024/02/03 00:20:18;;;;;;;3.95;2.53;;;;;;;8.42;100.00;98994.44;15031580;19;5002140;-59
2024/02/03 00:25:46;;;;;;;3.28;2.53;;;;;;;8.40;100.00;98986.53;15292422;19;20018;-56
2024/02/03 00:31:12;;;;;;;3.08;2.63;;;;;;;8.39;100.00;99000.91;15290419;19;20074;-52
2024/02/03 00:36:31;;;;;;;2.67;2.40;;;;;;;8.40;100.00;98988.38;15286149;19;20025;-53
2024/02/03 00:41:58;;;;;;;3.00;2.60;;;;;;;8.36;100.00;98997.66;15288824;19;20541;-53
2024/02/03 00:47:23;;;;;;;3.25;2.45;;;;;;;8.37;100.00;98991.31;15283574;19;20352;-54
2024/02/03 00:52:47;;;;;;;2.95;2.58;;;;;;;8.35;100.00;98980.69;15282405;19;20481;-53
2024/02/03 00:58:15;;;;;;;2.75;2.50;;;;;;;8.34;100.00;98987.06;15285407;19;20421;-54
2024/02/03 01:03:46;;;;;;;2.63;2.40;;;;;;;8.32;100.00;98992.53;15280566;19;20114;-58
2024/02/03 01:09:11;;;;;;;2.97;2.43;;;;;;;8.30;100.00;98997.19;15288713;19;20073;-55
2024/02/03 01:14:38;;;;;;;3.63;2.20;;;;;;;8.31;100.00;99001.59;15287137;19;20022;-56
2024/02/03 01:20:05;;;;;;;2.83;2.25;;;;;;;8.31;100.00;98993.53;15281070;19;20479;-55
2024/02/03 01:25:29;;;;;;;2.60;2.40;;;;;;;8.34;100.00;98992.44;15285905;19;20022;-57
2024/02/03 01:30:57;;;;;;;2.60;2.40;;;;;;;8.30;100.00;98986.44;15283659;19;20019;-54
2024/02/03 01:36:21;;;;;;;2.60;2.05;;;;;;;8.30;100.00;98983.78;15026997;19;5001450;-55
2024/02/03 01:41:46;;;;;;;2.80;2.20;;;;;;;8.35;100.00;98987.91;15286011;19;20502;-59
2024/02/03 01:47:13;;;;;;;2.47;2.28;;;;;;;8.36;100.00;99003.88;15283526;19;20470;-54
2024/02/03 01:52:38;;;;;;;2.35;2.15;;;;;;;8.35;100.00;98999.47;15279228;19;20019;-57
2024/02/03 01:58:02;;;;;;;2.70;2.50;;;;;;;8.32;100.00;99000.59;15282918;19;20025;-55
2024/02/03 02:03:31;;;;;;;3.22;2.47;;;;;;;8.28;100.00;98993.81;15277179;19;20044;-58
2024/02/03 02:08:58;;;;;;;2.30;2.10;;;;;;;8.27;100.00;98996.63;15282747;19;20036;-58
2024/02/03 02:14:24;;;;;;;2.80;2.00;;;;;;;8.28;100.00;98998.31;15283210;19;20034;-58
2024/02/03 02:19:51;;;;;;;2.38;2.17;;;;;;;8.27;100.00;98980.50;15284746;19;20582;-54
2024/02/03 02:25:19;;;;;;;2.75;2.28;;;;;;;8.25;100.00;99006.63;15282851;19;20015;-52
2024/02/03 02:30:44;;;;;;;2.10;1.88;;;;;;;8.22;100.00;99048.00;15281826;19;20354;-57
2024/02/03 02:36:09;;;;;;;2.45;2.15;;;;;;;8.20;100.00;98988.22;15283750;19;20366;-56
2024/02/03 02:41:37;;;;;;;2.67;2.10;;;;;;;8.15;100.00;98998.53;15275550;19;20049;-60
2024/02/03 02:47:03;;;;;;;2.40;2.20;;;;;;;8.14;100.00;98986.94;15296608;19;20025;-58
2024/02/03 02:52:27;;;;;;;2.10;1.95;;;;;;;8.15;100.00;99003.91;15294463;19;20479;-58
2024/02/03 02:57:55;;;;;;;2.95;2.00;;;;;;;8.13;100.00;99019.28;15297187;19;20022;-59
2024/02/03 03:03:19;;;;;;;2.60;2.00;;;;;;;8.10;100.00;99006.13;15292269;19;20353;-58
2024/02/03 03:08:44;;;;;;;1.90;1.70;;;;;;;8.11;100.00;99015.88;15298148;19;20026;-57
2024/02/03 03:14:12;;;;;;;2.05;1.83;;;;;;;8.10;100.00;98998.94;15291291;19;20082;-58
2024/02/03 03:19:39;;;;;;;1.80;1.70;;;;;;;8.13;100.00;99005.84;15294302;19;20433;-59
2024/02/03 03:25:03;;;;;;;2.47;2.00;;;;;;;8.09;100.00;98996.34;15288826;19;20026;-57
2024/02/03 03:30:31;;;;;;;1.63;1.52;;;;;;;8.08;100.00;99010.75;15291338;19;20654;-60
2024/02/03 03:35:55;;;;;;;1.58;1.48;;;;;;;8.07;100.00;99001.88;15294757;19;20020;-58
2024/02/03 03:41:20;;;;;;;1.50;1.40;;;;;;;8.11;100.00;99013.19;15291712;19;20073;-59
2024/02/03 03:46:47;;;;;;;1.50;1.40;;;;;;;8.10;100.00;99004.31;15295605;19;20074;-56
2024/02/03 03:52:12;;;;;;;1.98;1.30;;;;;;;8.14;100.00;99000.34;15295005;19;20023;-58
2024/02/03 03:57:36;;;;;;;1.55;1.45;;;;;;;8.14;100.00;99012.94;15288659;19;20035;-59
2024/02/03 04:03:04;;;;;;;1.30;1.20;;;;;;;8.17;100.00;99018.03;15282357;19;20025;-59
2024/02/03 04:08:28;;;;;;;1.52;1.40;;;;;;;8.18;100.00;99020.59;15294534;19;20017;-59
2024/02/03 04:13:53;;;;;;;1.48;1.10;;;;;;;8.23;100.00;99012.13;15285905;19;20027;-57
2024/02/03 04:19:20;;;;;;;1.10;1.10;;;;;;;8.22;100.00;99007.75;15289363;19;20086;-57
2024/02/03 04:24:45;;;;;;;1.70;1.20;;;;;;;8.25;100.00;99012.88;15288575;19;20041;-60
2024/02/03 04:30:09;;;;;;;1.55;1.00;;;;;;;8.28;100.00;99017.09;15288310;19;20479;-57
2024/02/03 04:35:44;;;;;;;0.93;0.93;;;;;;;8.28;100.00;98996.50;15332346;19;20017;-58
2024/02/03 04:41:08;;;;;;;1.38;1.00;;;;;;;8.29;100.00;99000.84;15285912;19;20045;-58
2024/02/03 04:46:33;;;;;;;1.48;1.10;;;;;;;8.27;100.00;99000.16;15289605;19;20017;-61
2024/02/03 04:52:00;;;;;;;1.10;1.00;;;;;;;8.30;100.00;98975.72;15285680;19;20020;-61
2024/02/03 04:57:26;;;;;;;0.80;0.80;;;;;;;8.31;100.00;98981.94;15286901;19;20094;-61
2024/02/03 05:02:50;;;;;;;0.82;0.82;;;;;;;8.33;100.00;98975.47;15276413;19;20090;-62
2024/02/03 05:08:18;;;;;;;0.70;0.70;;;;;;;8.36;100.00;98979.69;15282275;19;20037;-61
2024/02/03 05:13:43;;;;;;;0.70;0.70;;;;;;;8.40;100.00;98967.72;15276810;19;20020;-60
2024/02/03 05:19:09;;;;;;;1.10;0.70;;;;;;;8.42;100.00;98975.63;15285649;19;20019;-59
2024/02/03 05:24:36;;;;;;;0.95;0.70;;;;;;;8.44;100.00;98963.78;15286582;19;20035;-59
2024/02/03 05:30:02;;;;;;;0.55;0.50;;;;;;;8.46;100.00;98952.91;15288564;19;20093;-58
2024/02/03 05:35:28;;;;;;;0.68;0.50;;;;;;;8.45;100.00;98954.75;15277233;19;20010;-57
2024/02/03 05:40:56;;;;;;;0.60;0.47;;;;;;;8.42;100.00;98978.31;15280491;19;20028;-59
2024/02/03 05:46:20;;;;;;;0.40;0.40;;;;;;;8.43;100.00;98947.81;15279863;19;20017;-58
2024/02/03 05:51:45;;;;;;;0.40;0.40;;;;;;;8.44;100.00;98944.13;15277317;19;20022;-57
2024/02/03 05:57:13;;;;;;;0.38;0.38;;;;;;;8.44;100.00;98934.25;15284715;19;20692;-59
2024/02/03 06:02:39;;;;;;;0.57;0.40;;;;;;;8.45;100.00;98945.84;15280398;19;20025;-57
2024/02/03 06:08:03;;;;;;;0.30;0.30;;;;;;;8.44;100.00;98938.75;15280012;19;20029;-59
2024/02/03 06:13:31;;;;;;;0.40;0.40;;;;;;;8.46;100.00;98936.78;15280133;19;20021;-58
2024/02/03 06:18:56;;;;;;;0.30;0.30;;;;;;;8.53;100.00;98942.50;15283495;19;20053;-59
2024/02/03 06:24:21;;;;;;;0.22;0.22;;;;;;;8.56;100.00;98923.44;15295888;19;20085;-58
2024/02/03 06:29:48;;;;;;;0.20;0.20;;;;;;;8.60;100.00;98922.16;15297659;19;20082;-60
2024/02/03 06:35:13;;;;;;;0.30;0.30;;;;;;;8.57;100.00;98919.78;15295876;19;20022;-58
2024/02/03 06:40:37;;;;;;;0.40;0.30;;;;;;;8.55;100.00;98924.44;15287957;19;20019;-60
2024/02/03 06:46:05;;;;;;;0.20;0.20;;;;;;;8.53;100.00;98942.50;15294969;19;20010;-60
2024/02/03 06:51:29;;;;;;;0.20;0.20;;;;;;;8.53;100.00;98929.91;15294000;19;20022;-60
2024/02/03 06:56:55;;;;;;;0.40;0.20;;;;;;;8.54;100.00;98942.38;15298016;19;20355;-57
2024/02/03 07:02:29;;;;;;;0.13;0.13;;;;;;;8.54;100.00;98915.50;15285591;19;20362;-58
2024/02/03 07:07:55;;;;;;;0.20;0.20;;;;;;;8.60;100.00;98936.47;15291827;19;20021;-60
2024/02/03 07:13:21;;;;;;;0.40;0.30;;;;;;;8.63;100.00;98960.38;15282498;19;20044;-55
2024/02/03 07:18:49;;;;;;;0.45;0.38;;;;;;;8.67;100.00;98923.34;15295915;19;20022;-57
2024/02/03 07:24:14;;;;;;;1.65;0.30;;;;;;;8.72;100.00;98928.31;15293174;19;20023;-59
2024/02/03 07:29:41;;;;;;;0.20;0.20;;;;;;;8.71;100.00;98940.88;15292236;19;20038;-63
2024/02/03 07:35:09;;;;;;;0.43;0.30;;;;;;;8.73;100.00;98938.06;15287354;19;20015;-59
2024/02/03 07:40:35;;;;;;;0.20;0.20;;;;;;;8.70;100.00;98947.22;15288990;19;20024;-60
2024/02/03 07:45:59;;;;;;;0.22;0.20;;;;;;;8.72;100.00;98964.06;15286589;19;20045;-59
2024/02/03 07:51:27;;;;;;;0.63;0.20;;;;;;;8.73;100.00;98967.63;15290321;19;20014;-60
2024/02/03 07:56:51;;;;;;;0.15;0.10;;;;;;;8.73;100.00;98981.03;15290835;19;20481;-66
2024/02/03 08:02:16;;;;;;;0.10;0.10;;;;;;;8.73;100.00;98981.03;15287724;19;20432;-64
2024/02/03 08:07:43;;;;;;;0.20;0.20;;;;;;;8.74;100.00;98977.38;15290835;19;20034;-59
2024/02/03 08:13:08;;;;;;;0.20;0.20;;;;;;;8.77;100.00;98993.19;15284519;19;20087;-57
2024/02/03 08:18:32;;;;;;;0.20;0.10;;;;;;;8.79;100.00;98996.59;15284758;19;20007;-63
2024/02/03 08:24:02;;;;;;;0.20;0.20;;;;;;;8.83;100.00;99003.41;15288466;19;20022;-62
2024/02/03 08:29:27;;;;;;;0.20;0.20;;;;;;;8.84;100.00;98999.75;15288254;19;20017;-61
2024/02/03 08:34:52;;;;;;;0.40;0.20;;;;;;;8.90;100.00;99003.72;15291444;19;20021;-61
2024/02/03 08:40:22;;;;;;;0.08;0.08;;;;;;;8.92;100.00;99007.97;15287234;19;20018;-62
2024/02/03 08:45:47;;;;;;;0.17;0.17;;;;;;;8.94;100.00;98992.56;15283238;19;20035;-59
2024/02/03 08:51:12;;;;;;;0.25;0.20;;;;;;;8.98;100.00;98998.50;15251723;19;20006;-62
2024/02/03 08:56:40;;;;;;;0.10;0.10;;;;;;;9.07;100.00;98994.16;15288414;19;20369;-62
2024/02/03 09:02:05;;;;;;;0.10;0.10;;;;;;;9.15;100.00;99001.53;15282799;19;20101;-62
2024/02/03 09:07:34;;;;;;;0.43;0.20;;;;;;;9.23;100.00;98999.00;15283108;19;20023;-62
2024/02/03 09:13:01;;;;;;;0.10;0.10;;;;;;;9.30;100.00;99008.19;15284351;19;20022;-62
2024/02/03 09:18:27;;;;;;;1.45;0.10;;;;;;;9.36;100.00;99004.09;15287913;19;20451;-62
2024/02/03 09:23:51;;;;;;;0.10;0.10;;;;;;;9.38;100.00;98999.44;14997299;19;5001149;-62
2024/02/03 09:29:19;;;;;;;0.10;0.10;;;;;;;9.45;100.00;98999.75;15281792;19;20418;-62
2024/02/03 09:34:44;;;;;;;0.15;0.10;;;;;;;9.46;100.00;99006.81;15282008;19;20011;-62
2024/02/03 09:40:12;;;;;;;0.10;0.10;;;;;;;9.52;100.00;98999.03;15283876;19;20094;-62
2024/02/03 09:45:40;;;;;;;0.10;0.10;;;;;;;9.63;100.00;99010.66;15282717;19;20094;-62
2024/02/03 09:51:06;;;;;;;0.10;0.10;;;;;;;9.72;100.00;98999.03;15274828;19;20018;-59
2024/02/03 09:56:30;;;;;;;1.65;0.10;;;;;;;9.72;100.00;99009.81;15306096;19;20358;-60
2024/02/03 10:02:01;;;;;;;0.10;0.10;;;;;;;9.70;100.00;99022.56;15305905;19;20511;-59
2024/02/03 10:07:33;;;;;;;0.10;0.10;;;;;;;9.70;100.00;99025.28;15308770;19;20013;-60
2024/02/03 10:13:08;;;;;;;0.00;0.00;;;;;;;9.76;100.00;99043.53;15311067;19;20078;-60
2024/02/03 10:18:36;;;;;;;0.22;0.20;;;;;;;9.76;100.00;99046.22;15312200;19;20104;-62
2024/02/03 10:24:03;;;;;;;0.10;0.10;;;;;;;9.80;100.00;99042.25;15302544;19;20014;-60
2024/02/03 10:29:28;;;;;;;0.10;0.10;;;;;;;9.81;100.00;99041.28;15308322;19;20025;-60
2024/02/03 10:34:57;;;;;;;0.00;0.00;;;;;;;9.83;100.00;99033.88;15306849;19;20019;-61
2024/02/03 10:40:22;;;;;;;0.00;0.00;;;;;;;9.85;100.00;99025.69;15309663;19;20021;-61
2024/02/03 10:45:53;;;;;;;0.10;0.10;;;;;;;9.89;100.00;99031.63;15050766;19;5002344;-62
2024/02/03 10:51:28;;;;;;;0.10;0.10;;;;;;;9.84;100.00;99032.91;15304446;19;20022;-62
2024/02/03 10:56:55;;;;;;;0.10;0.10;;;;;;;9.80;100.00;99031.50;15299083;19;20034;-64
2024/02/03 11:02:26;;;;;;;0.20;0.20;;;;;;;9.80;100.00;99038.72;15302431;19;20019;-62
2024/02/03 11:07:54;;;;;;;0.20;0.10;;;;;;;9.79;100.00;99031.63;15293526;19;20070;-60
2024/02/03 11:13:30;;;;;;;0.00;0.00;;;;;;;9.79;100.00;99037.88;15282768;19;20015;-62
2024/02/03 11:18:55;;;;;;;0.20;0.10;;;;;;;9.79;100.00;99032.50;15289548;19;20082;-60
2024/02/03 11:24:22;;;;;;;0.43;0.20;;;;;;;9.78;100.00;99022.72;15285955;19;20019;-63
2024/02/03 11:29:47;;;;;;;0.10;0.10;;;;;;;9.81;100.00;99017.06;15280569;19;20512;-58
2024/02/03 11:35:12;;;;;;;0.10;0.10;;;;;;;9.86;100.00;99025.53;15286615;19;20880;-59
2024/02/03 11:40:53;;;;;;;0.05;0.05;;;;;;;9.90;100.00;99017.19;15288281;19;20022;-62
2024/02/03 11:46:13;;;;;;;0.17;0.10;;;;;;;9.91;100.00;99011.66;15295437;19;20035;-63
2024/02/03 11:51:37;;;;;;;0.10;0.10;;;;;;;9.99;100.00;99016.31;15286934;19;20218;-65
2024/02/03 11:57:05;;;;;;;0.20;0.15;;;;;;;9.99;100.00;99010.94;15291003;19;20019;-58
2024/02/03 12:02:29;;;;;;;0.03;0.03;;;;;;;9.89;100.00;99002.88;15283469;19;20016;-57
2024/02/03 12:07:54;;;;;;;0.10;0.10;;;;;;;9.89;100.00;98999.34;15292730;19;20011;-57
2024/02/03 12:13:21;;;;;;;0.20;0.10;;;;;;;9.97;100.00;98984.19;15289670;19;20021;-63
2024/02/03 12:18:48;;;;;;;0.88;0.10;;;;;;;10.01;100.00;98982.03;15286569;19;20018;-55
2024/02/03 12:24:14;;;;;;;0.30;0.20;;;;;;;10.03;100.00;98991.66;15288257;19;20020;-59
2024/02/03 12:29:42;;;;;;;0.10;0.10;;;;;;;10.08;100.00;98985.00;15287314;19;20553;-62
2024/02/03 12:35:06;;;;;;;0.30;0.20;;;;;;;10.07;100.00;98970.69;15287408;19;20014;-62
2024/02/03 12:40:31;;;;;;;0.10;0.10;;;;;;;10.09;100.00;98970.56;15290201;19;20023;-60
2024/02/03 12:45:58;;;;;;;0.20;0.00;;;;;;;10.13;100.00;98956.66;15289051;19;20022;-59
2024/02/03 12:51:23;;;;;;;0.28;0.10;;;;;;;10.22;100.00;98935.22;15287956;19;20496;-61
2024/02/03 12:56:47;;;;;;;0.13;0.10;;;;;;;10.27;100.00;98941.03;15287021;19;20010;-61
2024/02/03 13:02:15;;;;;;;0.10;0.10;;;;;;;10.26;100.00;98942.03;15282885;19;20022;-62
2024/02/03 13:07:46;;;;;;;0.20;0.17;;;;;;;10.24;100.00;98938.63;15281909;19;20020;-62
2024/02/03 13:13:11;;;;;;;0.30;0.20;;;;;;;10.25;100.00;98935.78;15285328;19;20018;-62
2024/02/03 13:18:38;;;;;;;0.10;0.10;;;;;;;10.23;100.00;98929.69;15289341;19;20082;-63
2024/02/03 13:24:03;;;;;;;0.10;0.10;;;;;;;10.22;100.00;98924.44;15284821;19;20513;-63
2024/02/03 13:29:27;;;;;;;0.10;0.10;;;;;;;10.21;100.00;98931.69;15283893;19;20022;-61
2024/02/03 13:34:58;;;;;;;0.20;0.10;;;;;;;10.21;100.00;98914.69;15288235;19;20010;-60
2024/02/03 13:40:24;;;;;;;0.10;0.10;;;;;;;10.24;100.00;98931.38;15281151;19;20074;-61
2024/02/03 13:45:48;;;;;;;0.20;0.17;;;;;;;10.30;100.00;98881.47;15287430;19;20010;-60
2024/02/03 13:51:16;;;;;;;0.10;0.10;;;;;;;10.34;100.00;98912.50;15283706;19;20086;-60
2024/02/03 13:56:41;;;;;;;0.10;0.10;;;;;;;10.33;100.00;98910.81;15282224;19;20820;-59
2024/02/03 14:02:06;;;;;;;0.40;0.25;;;;;;;10.31;100.00;98896.63;15279755;19;20017;-61
2024/02/03 14:07:40;;;;;;;0.65;0.10;;;;;;;10.29;100.00;98922.88;15278346;19;20018;-59
2024/02/03 14:13:05;;;;;;;0.95;0.10;;;;;;;10.20;100.00;98904.91;15274968;19;20014;-61
2024/02/03 14:18:29;;;;;;;0.43;0.40;;;;;;;10.18;100.00;98897.81;15282794;19;20041;-60
2024/02/03 14:23:56;;;;;;;0.57;0.20;;;;;;;10.18;100.00;98905.06;15279431;19;20090;-59
2024/02/03 14:29:21;;;;;;;0.30;0.17;;;;;;;10.12;100.00;98906.50;15280119;19;20096;-61
2024/02/03 14:34:45;;;;;;;0.52;0.13;;;;;;;10.10;100.00;98889.63;15279812;19;20082;-60
2024/02/03 14:40:14;;;;;;;0.17;0.17;;;;;;;10.09;100.00;98889.78;15284008;19;20038;-61
2024/02/03 14:45:38;;;;;;;0.55;0.20;;;;;;;10.05;100.00;98891.94;15289844;19;20026;-57
2024/02/03 14:51:03;;;;;;;0.10;0.10;;;;;;;10.03;100.00;98899.31;15293679;19;20042;-60
2024/02/03 14:56:30;;;;;;;0.20;0.20;;;;;;;10.00;100.00;98886.97;15296499;19;20018;-60
2024/02/03 15:01:55;;;;;;;0.00;0.00;;;;;;;10.00;100.00;98899.59;15292811;19;20028;-60
2024/02/03 15:07:26;;;;;;;0.20;0.13;;;;;;;9.99;100.00;98905.97;15290000;19;20021;-59
2024/02/03 15:12:53;;;;;;;0.20;0.20;;;;;;;9.97;100.00;98910.63;15290452;19;20039;-60
2024/02/03 15:18:18;;;;;;;0.25;0.20;;;;;;;9.95;100.00;98893.78;15287214;19;20022;-59
2024/02/03 15:23:42;;;;;;;0.28;0.28;;;;;;;9.93;100.00;98899.31;15287934;19;20011;-62
2024/02/03 15:29:25;;;;;;;0.10;0.10;;;;;;;9.88;100.00;98898.88;15301176;19;20018;-60
2024/02/03 15:34:59;;;;;;;0.25;0.22;;;;;;;9.85;100.00;98900.03;15290596;19;20019;-59
2024/02/03 15:40:25;;;;;;;0.22;0.10;;;;;;;9.85;100.00;98913.50;15294055;19;20024;-62
2024/02/03 15:45:53;;;;;;;0.10;0.10;;;;;;;9.86;100.00;98920.56;15281472;19;20379;-60
2024/02/03 15:51:20;;;;;;;0.10;0.10;;;;;;;9.84;100.00;98910.97;15286942;19;20795;-58
2024/02/03 15:56:46;;;;;;;0.13;0.10;;;;;;;9.79;100.00;98935.63;15292629;19;20037;-59
2024/02/03 16:02:15;;;;;;;0.70;0.10;;;;;;;9.75;100.00;98936.88;15287074;19;20022;-60
2024/02/03 16:07:49;;;;;;;0.10;0.10;;;;;;;9.64;100.00;98937.88;15287010;19;20028;-60
2024/02/03 16:13:15;;;;;;;0.10;0.10;;;;;;;9.61;100.00;98945.38;15290082;19;20027;-56
2024/02/03 16:18:43;;;;;;;0.57;0.20;;;;;;;9.60;100.00;98957.13;15286499;19;20032;-58
2024/02/03 16:24:08;;;;;;;0.10;0.10;;;;;;;9.59;100.00;98937.47;15284273;19;20015;-60
2024/02/03 16:29:33;;;;;;;0.43;0.20;;;;;;;9.56;100.00;98941.28;15286903;19;20078;-60
2024/02/03 16:35:00;;;;;;;0.65;0.17;;;;;;;9.63;100.00;98940.72;15289500;19;20077;-63
2024/02/03 16:40:25;;;;;;;0.20;0.20;;;;;;;9.66;100.00;98937.75;15288734;19;20097;-59
2024/02/03 16:45:50;;;;;;;0.20;0.20;;;;;;;9.64;100.00;98935.19;15285386;19;20408;-61
2024/02/03 16:51:17;;;;;;;0.30;0.30;;;;;;;9.62;100.00;98949.78;15281051;19;20110;-63
2024/02/03 16:56:42;;;;;;;0.15;0.15;;;;;;;9.58;100.00;98953.75;15287449;19;20026;-61
2024/02/03 17:02:07;;;;;;;0.30;0.30;;;;;;;9.58;100.00;98953.75;15281552;19;20524;-60
2024/02/03 17:07:42;;;;;;;0.17;0.17;;;;;;;9.50;100.00;98949.91;15284141;19;20026;-61
2024/02/03 17:13:07;;;;;;;0.63;0.30;;;;;;;9.41;100.00;98961.53;15284768;19;20042;-61
2024/02/03 17:18:32;;;;;;;1.10;0.30;;;;;;;9.30;100.00;98984.00;15287955;19;20410;-62
2024/02/03 17:23:59;;;;;;;0.57;0.30;;;;;;;9.15;100.00;98975.50;15282013;19;20037;-58
2024/02/03 17:29:24;;;;;;;0.93;0.30;;;;;;;9.05;100.00;98986.25;15285457;19;20750;-62
2024/02/03 17:34:49;;;;;;;1.38;0.40;;;;;;;8.96;100.00;98996.97;15288519;19;20399;-62
2024/02/03 17:40:17;;;;;;;0.35;0.30;;;;;;;8.85;100.00;98996.09;15285532;19;20010;-62
2024/02/03 17:45:43;;;;;;;0.85;0.57;;;;;;;8.77;100.00;99003.94;15285542;19;20404;-62
2024/02/03 17:51:08;;;;;;;0.50;0.50;;;;;;;8.73;100.00;99003.38;15281799;19;20026;-62
2024/02/03 17:56:37;;;;;;;1.38;0.43;;;;;;;8.71;100.00;99004.50;15279912;19;20026;-61
2024/02/03 18:02:02;;;;;;;1.58;0.70;;;;;;;8.67;100.00;99003.06;15284378;19;20374;-62
2024/02/03 18:07:34;;;;;;;0.70;0.70;;;;;;;8.60;100.00;99000.94;15274812;19;20074;-62
2024/02/03 18:13:03;;;;;;;0.73;0.65;;;;;;;8.53;100.00;99006.97;15281601;19;20045;-61
2024/02/03 18:18:28;;;;;;;0.68;0.60;;;;;;;8.47;100.00;99016.38;15292984;19;20015;-62
2024/02/03 18:23:52;;;;;;;1.88;0.60;;;;;;;8.42;100.00;99013.22;15294666;19;20017;-62
2024/02/03 18:29:20;;;;;;;1.10;1.00;;;;;;;8.33;100.00;99021.09;15291146;19;20101;-61
2024/02/03 18:34:44;;;;;;;0.90;0.90;;;;;;;8.25;100.00;99031.66;15298759;19;20090;-61
2024/02/03 18:40:09;;;;;;;1.00;1.00;;;;;;;8.17;100.00;99061.00;15295078;19;20015;-62
2024/02/03 18:45:36;;;;;;;0.90;0.90;;;;;;;8.12;100.00;99065.88;15288061;19;20019;-62
2024/02/03 18:51:01;;;;;;;0.90;0.90;;;;;;;8.09;100.00;99076.88;15296255;19;20121;-62
2024/02/03 18:56:27;;;;;;;1.73;0.80;;;;;;;8.04;100.00;99073.75;15299406;19;20417;-62
2024/02/03 19:01:54;;;;;;;1.33;0.70;;;;;;;8.03;100.00;99097.03;15292668;19;20022;-63
2024/02/03 19:07:25;;;;;;;3.38;0.80;;;;;;;7.99;100.00;99096.44;15285091;19;20041;-63
2024/02/03 19:12:49;;;;;;;0.83;0.70;;;;;;;7.95;100.00;99119.13;15295294;19;20046;-63
2024/02/03 19:18:17;;;;;;;0.88;0.70;;;;;;;7.94;100.00;99119.25;15297514;19;20431;-64
2024/02/03 19:23:41;;;;;;;0.60;0.60;;;;;;;7.94;100.00;99136.19;15289797;19;20037;-62
2024/02/03 19:29:07;;;;;;;2.03;0.60;;;;;;;7.93;100.00;99115.75;15294959;19;20078;-61
2024/02/03 19:34:35;;;;;;;0.40;0.40;;;;;;;7.92;100.00;99127.44;15292834;19;20479;-61
2024/02/03 19:40:00;;;;;;;0.40;0.40;;;;;;;7.92;100.00;99146.22;15285983;19;20355;-61
2024/02/03 19:45:26;;;;;;;0.47;0.40;;;;;;;7.92;100.00;99150.72;15285045;19;20033;-63
2024/02/03 19:50:54;;;;;;;0.52;0.30;;;;;;;7.93;100.00;99136.34;15294709;19;20074;-61
2024/02/03 19:56:19;;;;;;;0.35;0.30;;;;;;;7.93;100.00;99123.78;15327596;19;20368;-63
2024/02/03 20:01:45;;;;;;;0.35;0.35;;;;;;;7.97;100.00;99129.75;15287110;19;20026;-63
2024/02/03 20:07:19;;;;;;;0.30;0.30;;;;;;;7.97;100.00;99130.59;15282389;19;20085;-62
2024/02/03 20:12:43;;;;;;;0.57;0.43;;;;;;;7.96;100.00;99134.25;15286297;19;20015;-63
2024/02/03 20:18:08;;;;;;;0.65;0.30;;;;;;;7.96;100.00;99134.25;15284232;19;20018;-63
2024/02/03 20:23:35;;;;;;;1.85;0.50;;;;;;;7.96;100.00;99139.63;15282156;19;20078;-61
2024/02/03 20:29:00;;;;;;;0.40;0.40;;;;;;;7.96;100.00;99139.63;15284766;19;20101;-63
2024/02/03 20:34:24;;;;;;;0.32;0.30;;;;;;;7.93;100.00;99126.47;15283510;19;20024;-59
2024/02/03 20:39:52;;;;;;;0.30;0.30;;;;;;;7.95;100.00;99140.59;15283674;19;20037;-63
2024/02/03 20:45:16;;;;;;;0.45;0.40;;;;;;;7.96;100.00;99131.56;15285769;19;20024;-64
2024/02/03 20:50:42;;;;;;;0.55;0.50;;;;;;;7.99;100.00;99131.31;15285497;19;20022;-63
2024/02/03 20:56:10;;;;;;;0.68;0.63;;;;;;;8.01;100.00;99133.88;15286329;19;20549;-63
2024/02/03 21:01:35;;;;;;;0.68;0.47;;;;;;;7.97;100.00;99130.59;15286097;19;20093;-62
2024/02/03 21:07:08;;;;;;;0.65;0.40;;;;;;;7.99;100.00;99128.63;15287731;19;20036;-62
2024/02/03 21:12:38;;;;;;;0.43;0.40;;;;;;;7.98;100.00;99120.72;15283359;19;20042;-63
2024/02/03 21:18:02;;;;;;;1.10;0.40;;;;;;;7.98;100.00;99116.19;15287373;19;20017;-61
2024/02/03 21:23:27;;;;;;;0.30;0.30;;;;;;;8.03;100.00;99118.50;15276203;19;20090;-63
2024/02/03 21:28:55;;;;;;;0.40;0.40;;;;;;;8.06;100.00;99106.63;15279356;19;20022;-63
2024/02/03 21:34:20;;;;;;;0.73;0.40;;;;;;;8.09;100.00;99109.06;15287403;19;20045;-61
2024/02/03 21:39:46;;;;;;;0.40;0.40;;;;;;;8.11;100.00;99104.44;15274041;19;20686;-63
2024/02/03 21:45:13;;;;;;;0.47;0.40;;;;;;;8.14;100.00;99082.72;15282275;19;20078;-63
2024/02/03 21:50:38;;;;;;;0.95;0.47;;;;;;;8.14;100.00;99074.66;15279643;19;20022;-63
2024/02/03 21:56:02;;;;;;;0.47;0.47;;;;;;;8.14;100.00;99083.56;15277438;19;20581;-61
2024/02/03 22:01:30;;;;;;;0.45;0.28;;;;;;;8.15;100.00;99100.53;15279052;19;20086;-56
2024/02/03 22:07:01;;;;;;;0.75;0.50;;;;;;;8.24;100.00;99110.47;15269489;19;20414;-62
2024/02/03 22:12:26;;;;;;;1.00;0.50;;;;;;;8.18;100.00;99106.47;15279440;19;20011;-60
2024/02/03 22:17:53;;;;;;;0.68;0.68;;;;;;;8.16;100.00;99092.34;15276606;19;20086;-59
2024/02/03 22:23:18;;;;;;;0.50;0.50;;;;;;;8.15;100.00;99100.53;15280192;19;20021;-61
2024/02/03 22:28:42;;;;;;;0.50;0.50;;;;;;;8.12;100.00;99101.63;15281784;19;20078;-62
2024/02/03 22:34:10;;;;;;;1.05;0.60;;;;;;;8.11;100.00;99105.31;15284284;19;20054;-61
2024/02/03 22:39:35;;;;;;;0.55;0.55;;;;;;;8.12;100.00;99082.00;15277103;19;20090;-59
2024/02/03 22:45:00;;;;;;;0.50;0.30;;;;;;;8.16;100.00;99094.19;15271370;19;20081;-60
2024/02/03 22:50:27;;;;;;;0.30;0.30;;;;;;;8.23;100.00;99108.78;15279718;19;20020;-55
2024/02/03 22:55:54;;;;;;;0.85;0.40;;;;;;;8.25;100.00;99101.44;15274811;19;20011;-55
2024/02/03 23:01:18;;;;;;;0.45;0.30;;;;;;;8.29;100.00;99102.88;15279078;19;20085;-59
2024/02/03 23:06:45;;;;;;;0.38;0.38;;;;;;;8.30;100.00;99099.22;15283331;19;20332;-56
2024/02/03 23:12:10;;;;;;;0.40;0.40;;;;;;;8.32;100.00;99099.09;15293306;19;20019;-59
2024/02/03 23:17:35;;;;;;;0.50;0.50;;;;;;;8.28;100.00;99095.84;15289319;19;20017;-59
2024/02/03 23:23:04;;;;;;;0.57;0.57;;;;;;;8.26;100.00;99076.31;15292769;19;20348;-57
2024/02/03 23:28:31;;;;;;;0.40;0.40;;;;;;;8.23;100.00;99065.81;15283062;19;20014;-58
2024/02/03 23:33:59;;;;;;;0.93;0.50;;;;;;;8.26;100.00;99060.22;15295522;19;20045;-60
2024/02/03 23:39:26;;;;;;;0.60;0.60;;;;;;;8.28;100.00;99058.25;15287016;19;20021;-61
2024/02/03 23:44:52;;;;;;;1.00;0.60;;;;;;;8.36;100.00;99054.03;15291974;19;20011;-58
2024/02/03 23:50:17;;;;;;;0.60;0.60;;;;;;;8.44;100.00;99051.53;15278788;19;20045;-58
2024/02/03 23:55:44;;;;;;;0.40;0.40;;;;;;;8.44;100.00;99014.81;15291330;19;20024;-55
